sensor_id;sensor_type;location;lat;lon;timestamp;P1;durP1;ratioP1;P2;durP2;ratioP2
34657;SDS011;20865;43.312;27.152;2022-11-06T00:01:47;62.90;;;28.20;;
34657;SDS011;20865;43.312;27.152;2022-11-06T00:04:14;52.10;;;18.10;;
34657;SDS011;20865;43.312;27.152;2022-11-06T00:06:42;37.10;;;16.80;;
34657;SDS011;20865;43.312;27.152;2022-11-06T00:09:13;35.30;;;16.55;;
34657;SDS011;20865;43.312;27.152;2022-11-06T00:11:42;39.20;;;17.60;;
34657;SDS011;20865;43.312;27.152;2022-11-06T00:14:10;31.62;;;15.58;;
34657;SDS011;20865;43.312;27.152;2022-11-06T00:16:44;30.55;;;14.58;;
34657;SDS011;20865;43.312;27.152;2022-11-06T00:19:08;37.20;;;15.45;;
34657;SDS011;20865;43.312;27.152;2022-11-06T00:21:36;27.35;;;13.10;;
34657;SDS011;20865;43.312;27.152;2022-11-06T00:24:05;35.38;;;15.05;;
34657;SDS011;20865;43.312;27.152;2022-11-06T00:26:33;31.15;;;14.07;;
34657;SDS011;20865;43.312;27.152;2022-11-06T00:29:01;36.13;;;16.02;;
34657;SDS011;20865;43.312;27.152;2022-11-06T00:31:31;39.25;;;17.30;;
34657;SDS011;20865;43.312;27.152;2022-11-06T00:34:01;37.58;;;17.45;;
34657;SDS011;20865;43.312;27.152;2022-11-06T00:36:31;33.88;;;16.93;;
34657;SDS011;20865;43.312;27.152;2022-11-06T00:38:59;32.95;;;15.32;;
34657;SDS011;20865;43.312;27.152;2022-11-06T00:41:27;30.72;;;14.43;;
34657;SDS011;20865;43.312;27.152;2022-11-06T00:43:56;31.20;;;13.83;;
34657;SDS011;20865;43.312;27.152;2022-11-06T00:46:25;29.75;;;14.30;;
34657;SDS011;20865;43.312;27.152;2022-11-06T00:48:54;27.82;;;14.07;;
34657;SDS011;20865;43.312;27.152;2022-11-06T00:51:23;32.33;;;14.73;;
34657;SDS011;20865;43.312;27.152;2022-11-06T00:53:53;35.73;;;14.50;;
34657;SDS011;20865;43.312;27.152;2022-11-06T00:56:22;40.80;;;15.75;;
34657;SDS011;20865;43.312;27.152;2022-11-06T00:58:51;38.00;;;17.23;;
34657;SDS011;20865;43.312;27.152;2022-11-06T01:01:29;37.65;;;17.57;;
34657;SDS011;20865;43.312;27.152;2022-11-06T01:03:54;34.80;;;17.12;;
34657;SDS011;20865;43.312;27.152;2022-11-06T01:06:28;37.40;;;16.60;;
34657;SDS011;20865;43.312;27.152;2022-11-06T01:08:57;36.23;;;18.10;;
34657;SDS011;20865;43.312;27.152;2022-11-06T01:11:26;37.45;;;18.32;;
34657;SDS011;20865;43.312;27.152;2022-11-06T01:13:59;40.20;;;17.25;;
34657;SDS011;20865;43.312;27.152;2022-11-06T01:16:28;40.88;;;18.02;;
34657;SDS011;20865;43.312;27.152;2022-11-06T01:18:56;36.85;;;17.90;;
34657;SDS011;20865;43.312;27.152;2022-11-06T01:21:26;38.60;;;18.00;;
34657;SDS011;20865;43.312;27.152;2022-11-06T01:24:10;32.67;;;17.70;;
34657;SDS011;20865;43.312;27.152;2022-11-06T01:26:34;34.78;;;17.23;;
34657;SDS011;20865;43.312;27.152;2022-11-06T01:29:03;41.90;;;19.48;;
34657;SDS011;20865;43.312;27.152;2022-11-06T01:31:33;38.23;;;18.07;;
34657;SDS011;20865;43.312;27.152;2022-11-06T01:34:01;40.40;;;20.23;;
34657;SDS011;20865;43.312;27.152;2022-11-06T01:36:30;43.48;;;19.60;;
34657;SDS011;20865;43.312;27.152;2022-11-06T01:38:59;38.02;;;18.77;;
34657;SDS011;20865;43.312;27.152;2022-11-06T01:41:33;50.95;;;20.92;;
34657;SDS011;20865;43.312;27.152;2022-11-06T01:44:00;43.23;;;20.85;;
34657;SDS011;20865;43.312;27.152;2022-11-06T01:46:34;57.78;;;21.87;;
34657;SDS011;20865;43.312;27.152;2022-11-06T01:49:08;49.23;;;21.87;;
34657;SDS011;20865;43.312;27.152;2022-11-06T01:51:34;52.43;;;21.62;;
34657;SDS011;20865;43.312;27.152;2022-11-06T01:54:09;44.98;;;20.20;;
34657;SDS011;20865;43.312;27.152;2022-11-06T01:56:37;48.63;;;20.92;;
34657;SDS011;20865;43.312;27.152;2022-11-06T01:59:06;47.15;;;20.75;;
34657;SDS011;20865;43.312;27.152;2022-11-06T02:01:37;45.25;;;20.62;;
34657;SDS011;20865;43.312;27.152;2022-11-06T02:06:44;46.48;;;22.05;;
34657;SDS011;20865;43.312;27.152;2022-11-06T02:09:14;49.98;;;23.07;;
34657;SDS011;20865;43.312;27.152;2022-11-06T02:11:43;58.63;;;23.02;;
34657;SDS011;20865;43.312;27.152;2022-11-06T02:17:06;51.88;;;22.42;;
34657;SDS011;20865;43.312;27.152;2022-11-06T02:28:06;51.65;;;24.32;;
34657;SDS011;20865;43.312;27.152;2022-11-06T02:30:33;56.48;;;25.55;;
34657;SDS011;20865;43.312;27.152;2022-11-06T02:33:04;61.50;;;26.68;;
34657;SDS011;20865;43.312;27.152;2022-11-06T02:35:37;71.85;;;30.20;;
34657;SDS011;20865;43.312;27.152;2022-11-06T02:38:07;66.33;;;28.77;;
34657;SDS011;20865;43.312;27.152;2022-11-06T02:40:38;62.40;;;28.57;;
34657;SDS011;20865;43.312;27.152;2022-11-06T02:43:08;57.98;;;26.90;;
34657;SDS011;20865;43.312;27.152;2022-11-06T08:07:01;41.73;;;16.25;;
34657;SDS011;20865;43.312;27.152;2022-11-06T08:12:30;43.58;;;19.82;;
34657;SDS011;20865;43.312;27.152;2022-11-06T08:14:58;42.27;;;19.10;;
34657;SDS011;20865;43.312;27.152;2022-11-06T08:17:26;33.73;;;16.15;;
34657;SDS011;20865;43.312;27.152;2022-11-06T08:19:55;35.28;;;16.75;;
34657;SDS011;20865;43.312;27.152;2022-11-06T08:22:26;30.72;;;13.93;;
34657;SDS011;20865;43.312;27.152;2022-11-06T08:24:53;34.70;;;14.87;;
34657;SDS011;20865;43.312;27.152;2022-11-06T08:27:21;37.60;;;14.23;;
34657;SDS011;20865;43.312;27.152;2022-11-06T08:29:49;32.17;;;13.50;;
34657;SDS011;20865;43.312;27.152;2022-11-06T08:32:17;31.68;;;14.00;;
34657;SDS011;20865;43.312;27.152;2022-11-06T08:34:46;28.02;;;12.37;;
34657;SDS011;20865;43.312;27.152;2022-11-06T08:37:14;28.50;;;11.40;;
34657;SDS011;20865;43.312;27.152;2022-11-06T08:39:42;36.58;;;13.03;;
34657;SDS011;20865;43.312;27.152;2022-11-06T08:42:11;25.70;;;12.28;;
34657;SDS011;20865;43.312;27.152;2022-11-06T08:44:39;26.85;;;12.03;;
34657;SDS011;20865;43.312;27.152;2022-11-06T08:47:08;24.07;;;10.68;;
34657;SDS011;20865;43.312;27.152;2022-11-06T08:49:36;29.52;;;10.82;;
34657;SDS011;20865;43.312;27.152;2022-11-06T08:52:03;28.87;;;11.68;;
34657;SDS011;20865;43.312;27.152;2022-11-06T08:54:31;34.23;;;12.93;;
34657;SDS011;20865;43.312;27.152;2022-11-06T08:56:59;38.75;;;11.85;;
34657;SDS011;20865;43.312;27.152;2022-11-06T08:59:26;37.98;;;12.13;;
34657;SDS011;20865;43.312;27.152;2022-11-06T09:01:55;24.30;;;11.43;;
34657;SDS011;20865;43.312;27.152;2022-11-06T09:04:23;23.57;;;10.40;;
34657;SDS011;20865;43.312;27.152;2022-11-06T09:06:51;31.23;;;11.50;;
34657;SDS011;20865;43.312;27.152;2022-11-06T09:09:20;33.90;;;11.10;;
34657;SDS011;20865;43.312;27.152;2022-11-06T09:11:47;23.45;;;10.70;;
34657;SDS011;20865;43.312;27.152;2022-11-06T09:14:15;26.97;;;9.83;;
34657;SDS011;20865;43.312;27.152;2022-11-06T09:16:43;27.58;;;10.95;;
34657;SDS011;20865;43.312;27.152;2022-11-06T09:19:10;27.58;;;10.40;;
34657;SDS011;20865;43.312;27.152;2022-11-06T09:21:38;31.40;;;12.55;;
34657;SDS011;20865;43.312;27.152;2022-11-06T09:24:05;25.30;;;10.82;;
34657;SDS011;20865;43.312;27.152;2022-11-06T09:26:33;38.38;;;12.13;;
34657;SDS011;20865;43.312;27.152;2022-11-06T09:29:01;29.30;;;11.28;;
34657;SDS011;20865;43.312;27.152;2022-11-06T09:31:29;25.48;;;11.48;;
34657;SDS011;20865;43.312;27.152;2022-11-06T09:33:57;23.62;;;9.80;;
34657;SDS011;20865;43.312;27.152;2022-11-06T09:36:24;26.60;;;11.22;;
34657;SDS011;20865;43.312;27.152;2022-11-06T09:38:52;34.48;;;11.48;;
34657;SDS011;20865;43.312;27.152;2022-11-06T09:46:46;30.40;;;11.03;;
34657;SDS011;20865;43.312;27.152;2022-11-06T09:51:56;29.80;;;12.20;;
34657;SDS011;20865;43.312;27.152;2022-11-06T09:57:18;30.37;;;13.72;;
34657;SDS011;20865;43.312;27.152;2022-11-06T09:59:50;47.33;;;17.17;;
34657;SDS011;20865;43.312;27.152;2022-11-06T10:02:39;25.12;;;11.78;;
34657;SDS011;20865;43.312;27.152;2022-11-06T10:07:56;32.88;;;11.53;;
34657;SDS011;20865;43.312;27.152;2022-11-06T10:10:28;27.42;;;10.82;;
34657;SDS011;20865;43.312;27.152;2022-11-06T10:13:13;31.48;;;11.00;;
34657;SDS011;20865;43.312;27.152;2022-11-06T10:18:42;23.77;;;10.65;;
34657;SDS011;20865;43.312;27.152;2022-11-06T10:26:27;22.45;;;10.43;;
34657;SDS011;20865;43.312;27.152;2022-11-06T10:29:24;25.60;;;10.85;;
34657;SDS011;20865;43.312;27.152;2022-11-06T10:32:23;27.93;;;12.00;;
34657;SDS011;20865;43.312;27.152;2022-11-06T10:34:53;28.02;;;12.10;;
34657;SDS011;20865;43.312;27.152;2022-11-06T10:37:21;27.77;;;11.15;;
34657;SDS011;20865;43.312;27.152;2022-11-06T10:39:50;27.95;;;10.25;;
34657;SDS011;20865;43.312;27.152;2022-11-06T10:42:21;27.65;;;10.15;;
34657;SDS011;20865;43.312;27.152;2022-11-06T10:45:03;28.90;;;10.15;;
34657;SDS011;20865;43.312;27.152;2022-11-06T10:47:32;29.25;;;10.82;;
34657;SDS011;20865;43.312;27.152;2022-11-06T10:50:02;33.90;;;11.95;;
34657;SDS011;20865;43.312;27.152;2022-11-06T10:58:11;28.80;;;11.60;;
34657;SDS011;20865;43.312;27.152;2022-11-06T11:00:36;22.13;;;10.80;;
34657;SDS011;20865;43.312;27.152;2022-11-06T11:03:04;27.60;;;10.80;;
34657;SDS011;20865;43.312;27.152;2022-11-06T11:05:39;32.93;;;11.35;;
34657;SDS011;20865;43.312;27.152;2022-11-06T11:11:01;31.90;;;9.18;;
34657;SDS011;20865;43.312;27.152;2022-11-06T11:13:30;22.30;;;10.18;;
34657;SDS011;20865;43.312;27.152;2022-11-06T11:15:59;27.10;;;10.82;;
34657;SDS011;20865;43.312;27.152;2022-11-06T11:18:29;29.40;;;9.30;;
34657;SDS011;20865;43.312;27.152;2022-11-06T11:23:42;27.93;;;10.78;;
34657;SDS011;20865;43.312;27.152;2022-11-06T11:26:17;26.90;;;10.28;;
34657;SDS011;20865;43.312;27.152;2022-11-06T11:28:50;32.35;;;10.58;;
34657;SDS011;20865;43.312;27.152;2022-11-06T11:31:19;25.23;;;10.28;;
34657;SDS011;20865;43.312;27.152;2022-11-06T11:33:50;27.98;;;11.22;;
34657;SDS011;20865;43.312;27.152;2022-11-06T11:36:19;28.47;;;10.90;;
34657;SDS011;20865;43.312;27.152;2022-11-06T11:38:47;23.45;;;11.08;;
34657;SDS011;20865;43.312;27.152;2022-11-06T11:43:55;33.88;;;11.43;;
34657;SDS011;20865;43.312;27.152;2022-11-06T11:46:50;27.60;;;10.18;;
34657;SDS011;20865;43.312;27.152;2022-11-06T11:52:00;36.27;;;10.83;;
34657;SDS011;20865;43.312;27.152;2022-11-06T11:54:27;31.37;;;10.70;;
34657;SDS011;20865;43.312;27.152;2022-11-06T11:57:06;23.92;;;10.82;;
34657;SDS011;20865;43.312;27.152;2022-11-06T11:59:40;35.17;;;12.37;;
34657;SDS011;20865;43.312;27.152;2022-11-06T12:04:58;23.85;;;9.73;;
34657;SDS011;20865;43.312;27.152;2022-11-06T12:09:55;34.15;;;12.13;;
34657;SDS011;20865;43.312;27.152;2022-11-06T12:12:25;24.57;;;8.45;;
34657;SDS011;20865;43.312;27.152;2022-11-06T12:15:06;23.35;;;7.90;;
34657;SDS011;20865;43.312;27.152;2022-11-06T12:17:45;20.35;;;7.25;;
34657;SDS011;20865;43.312;27.152;2022-11-06T12:20:23;24.82;;;8.45;;
34657;SDS011;20865;43.312;27.152;2022-11-06T12:22:54;25.12;;;8.23;;
34657;SDS011;20865;43.312;27.152;2022-11-06T12:25:29;21.70;;;8.38;;
34657;SDS011;20865;43.312;27.152;2022-11-06T12:28:09;24.55;;;8.53;;
34657;SDS011;20865;43.312;27.152;2022-11-06T12:30:36;19.32;;;7.70;;
34657;SDS011;20865;43.312;27.152;2022-11-06T12:33:13;20.65;;;8.03;;
34657;SDS011;20865;43.312;27.152;2022-11-06T12:35:47;21.87;;;8.13;;
34657;SDS011;20865;43.312;27.152;2022-11-06T12:40:48;19.73;;;8.85;;
34657;SDS011;20865;43.312;27.152;2022-11-06T12:43:44;19.55;;;7.67;;
34657;SDS011;20865;43.312;27.152;2022-11-06T13:00:20;20.23;;;8.10;;
34657;SDS011;20865;43.312;27.152;2022-11-06T13:06:00;19.32;;;7.97;;
34657;SDS011;20865;43.312;27.152;2022-11-06T13:17:08;23.27;;;8.38;;
34657;SDS011;20865;43.312;27.152;2022-11-06T13:20:00;23.92;;;7.92;;
34657;SDS011;20865;43.312;27.152;2022-11-06T13:25:33;23.12;;;8.50;;
34657;SDS011;20865;43.312;27.152;2022-11-06T13:30:53;26.00;;;8.28;;
34657;SDS011;20865;43.312;27.152;2022-11-06T13:33:57;15.88;;;7.58;;
34657;SDS011;20865;43.312;27.152;2022-11-06T13:36:15;20.27;;;7.90;;
34657;SDS011;20865;43.312;27.152;2022-11-06T13:38:52;19.65;;;7.47;;
34657;SDS011;20865;43.312;27.152;2022-11-06T13:41:25;15.48;;;8.13;;
34657;SDS011;20865;43.312;27.152;2022-11-06T13:43:55;28.02;;;7.62;;
34657;SDS011;20865;43.312;27.152;2022-11-06T13:46:38;20.90;;;8.45;;
34657;SDS011;20865;43.312;27.152;2022-11-06T13:52:01;20.15;;;8.88;;
34657;SDS011;20865;43.312;27.152;2022-11-06T13:57:19;23.32;;;8.05;;
34657;SDS011;20865;43.312;27.152;2022-11-06T14:05:43;22.37;;;7.25;;
34657;SDS011;20865;43.312;27.152;2022-11-06T14:08:31;17.40;;;7.87;;
34657;SDS011;20865;43.312;27.152;2022-11-06T14:11:14;19.62;;;7.85;;
34657;SDS011;20865;43.312;27.152;2022-11-06T14:16:35;27.67;;;7.37;;
34657;SDS011;20865;43.312;27.152;2022-11-06T14:21:54;21.35;;;7.67;;
34657;SDS011;20865;43.312;27.152;2022-11-06T14:24:37;29.65;;;9.70;;
34657;SDS011;20865;43.312;27.152;2022-11-06T14:28:07;27.40;;;8.78;;
34657;SDS011;20865;43.312;27.152;2022-11-06T14:29:59;23.67;;;7.60;;
34657;SDS011;20865;43.312;27.152;2022-11-06T14:40:42;22.67;;;7.90;;
34657;SDS011;20865;43.312;27.152;2022-11-06T14:43:15;18.80;;;7.72;;
34657;SDS011;20865;43.312;27.152;2022-11-06T14:45:54;30.65;;;8.50;;
34657;SDS011;20865;43.312;27.152;2022-11-06T14:48:24;21.77;;;8.28;;
34657;SDS011;20865;43.312;27.152;2022-11-06T14:50:57;21.30;;;8.40;;
34657;SDS011;20865;43.312;27.152;2022-11-06T14:53:31;25.30;;;9.55;;
34657;SDS011;20865;43.312;27.152;2022-11-06T14:56:07;16.50;;;8.93;;
34657;SDS011;20865;43.312;27.152;2022-11-06T14:58:39;37.17;;;9.95;;
34657;SDS011;20865;43.312;27.152;2022-11-06T15:03:50;25.88;;;8.90;;
34657;SDS011;20865;43.312;27.152;2022-11-06T15:16:43;26.80;;;8.95;;
34657;SDS011;20865;43.312;27.152;2022-11-06T15:19:18;23.83;;;9.15;;
34657;SDS011;20865;43.312;27.152;2022-11-06T15:21:55;32.17;;;11.65;;
34657;SDS011;20865;43.312;27.152;2022-11-06T15:24:32;25.05;;;8.85;;
34657;SDS011;20865;43.312;27.152;2022-11-06T15:26:57;14.50;;;7.30;;
34657;SDS011;20865;43.312;27.152;2022-11-06T15:29:27;14.30;;;6.47;;
34657;SDS011;20865;43.312;27.152;2022-11-06T15:32:09;20.57;;;7.47;;
34657;SDS011;20865;43.312;27.152;2022-11-06T15:34:40;22.67;;;8.95;;
34657;SDS011;20865;43.312;27.152;2022-11-06T15:37:11;22.25;;;8.45;;
34657;SDS011;20865;43.312;27.152;2022-11-06T15:39:43;22.52;;;8.65;;
34657;SDS011;20865;43.312;27.152;2022-11-06T15:42:23;25.70;;;11.33;;
34657;SDS011;20865;43.312;27.152;2022-11-06T15:44:48;25.57;;;11.33;;
34657;SDS011;20865;43.312;27.152;2022-11-06T15:47:21;23.32;;;10.45;;
34657;SDS011;20865;43.312;27.152;2022-11-06T15:52:43;24.35;;;9.63;;
34657;SDS011;20865;43.312;27.152;2022-11-06T15:55:13;17.65;;;8.13;;
34657;SDS011;20865;43.312;27.152;2022-11-06T15:57:43;25.45;;;9.85;;
34657;SDS011;20865;43.312;27.152;2022-11-06T16:02:49;33.08;;;12.53;;
34657;SDS011;20865;43.312;27.152;2022-11-06T16:05:19;34.08;;;10.13;;
34657;SDS011;20865;43.312;27.152;2022-11-06T16:07:49;27.10;;;8.08;;
34657;SDS011;20865;43.312;27.152;2022-11-06T16:10:20;29.65;;;9.73;;
34657;SDS011;20865;43.312;27.152;2022-11-06T16:12:49;25.27;;;8.58;;
34657;SDS011;20865;43.312;27.152;2022-11-06T16:16:05;37.42;;;10.48;;
34657;SDS011;20865;43.312;27.152;2022-11-06T16:18:08;19.65;;;9.53;;
34657;SDS011;20865;43.312;27.152;2022-11-06T16:20:36;24.55;;;9.83;;
34657;SDS011;20865;43.312;27.152;2022-11-06T16:23:04;18.50;;;7.90;;
34657;SDS011;20865;43.312;27.152;2022-11-06T16:25:32;33.75;;;12.28;;
34657;SDS011;20865;43.312;27.152;2022-11-06T16:27:59;25.45;;;8.20;;
34657;SDS011;20865;43.312;27.152;2022-11-06T16:30:27;15.08;;;6.25;;
34657;SDS011;20865;43.312;27.152;2022-11-06T16:32:57;21.42;;;8.53;;
34657;SDS011;20865;43.312;27.152;2022-11-06T16:35:33;15.40;;;6.78;;
34657;SDS011;20865;43.312;27.152;2022-11-06T16:40:51;21.05;;;7.03;;
34657;SDS011;20865;43.312;27.152;2022-11-06T16:43:21;15.83;;;6.58;;
34657;SDS011;20865;43.312;27.152;2022-11-06T16:45:53;17.73;;;7.42;;
34657;SDS011;20865;43.312;27.152;2022-11-06T16:48:28;18.23;;;7.15;;
34657;SDS011;20865;43.312;27.152;2022-11-06T16:51:07;15.28;;;6.97;;
34657;SDS011;20865;43.312;27.152;2022-11-06T16:53:50;21.48;;;6.80;;
34657;SDS011;20865;43.312;27.152;2022-11-06T16:56:21;14.30;;;6.78;;
34657;SDS011;20865;43.312;27.152;2022-11-06T16:59:00;21.68;;;7.05;;
34657;SDS011;20865;43.312;27.152;2022-11-06T17:01:36;24.10;;;8.15;;
34657;SDS011;20865;43.312;27.152;2022-11-06T17:04:20;28.67;;;10.60;;
34657;SDS011;20865;43.312;27.152;2022-11-06T17:06:50;23.67;;;7.78;;
34657;SDS011;20865;43.312;27.152;2022-11-06T17:11:56;23.83;;;8.37;;
34657;SDS011;20865;43.312;27.152;2022-11-06T17:14:25;15.38;;;6.75;;
34657;SDS011;20865;43.312;27.152;2022-11-06T17:16:55;19.25;;;6.65;;
34657;SDS011;20865;43.312;27.152;2022-11-06T17:19:25;13.10;;;5.17;;
34657;SDS011;20865;43.312;27.152;2022-11-06T17:21:54;10.10;;;5.35;;
34657;SDS011;20865;43.312;27.152;2022-11-06T17:24:22;23.73;;;6.17;;
34657;SDS011;20865;43.312;27.152;2022-11-06T17:26:51;14.70;;;6.00;;
34657;SDS011;20865;43.312;27.152;2022-11-06T17:29:19;15.65;;;7.00;;
34657;SDS011;20865;43.312;27.152;2022-11-06T17:31:46;12.18;;;5.62;;
34657;SDS011;20865;43.312;27.152;2022-11-06T17:34:15;16.23;;;6.72;;
34657;SDS011;20865;43.312;27.152;2022-11-06T17:36:43;20.20;;;4.85;;
34657;SDS011;20865;43.312;27.152;2022-11-06T17:39:11;12.47;;;4.97;;
34657;SDS011;20865;43.312;27.152;2022-11-06T17:41:38;12.82;;;6.58;;
34657;SDS011;20865;43.312;27.152;2022-11-06T17:44:06;20.92;;;7.10;;
34657;SDS011;20865;43.312;27.152;2022-11-06T17:46:41;11.83;;;5.08;;
34657;SDS011;20865;43.312;27.152;2022-11-06T17:49:11;22.62;;;8.55;;
34657;SDS011;20865;43.312;27.152;2022-11-06T17:51:40;18.48;;;7.62;;
34657;SDS011;20865;43.312;27.152;2022-11-06T17:54:15;13.68;;;5.40;;
34657;SDS011;20865;43.312;27.152;2022-11-06T17:56:44;15.88;;;5.33;;
34657;SDS011;20865;43.312;27.152;2022-11-06T17:59:12;15.13;;;4.58;;
34657;SDS011;20865;43.312;27.152;2022-11-06T18:01:41;13.43;;;4.80;;
34657;SDS011;20865;43.312;27.152;2022-11-06T18:04:08;24.87;;;7.00;;
34657;SDS011;20865;43.312;27.152;2022-11-06T18:06:36;17.02;;;5.90;;
34657;SDS011;20865;43.312;27.152;2022-11-06T18:09:04;14.63;;;5.62;;
34657;SDS011;20865;43.312;27.152;2022-11-06T18:11:33;17.10;;;6.70;;
34657;SDS011;20865;43.312;27.152;2022-11-06T18:14:01;15.05;;;5.90;;
34657;SDS011;20865;43.312;27.152;2022-11-06T18:16:30;19.85;;;7.47;;
34657;SDS011;20865;43.312;27.152;2022-11-06T18:18:59;13.68;;;5.22;;
34657;SDS011;20865;43.312;27.152;2022-11-06T18:21:27;12.85;;;5.65;;
34657;SDS011;20865;43.312;27.152;2022-11-06T18:23:54;18.30;;;5.45;;
34657;SDS011;20865;43.312;27.152;2022-11-06T18:26:22;13.90;;;6.05;;
34657;SDS011;20865;43.312;27.152;2022-11-06T18:28:50;27.17;;;6.97;;
34657;SDS011;20865;43.312;27.152;2022-11-06T18:31:18;22.75;;;6.67;;
34657;SDS011;20865;43.312;27.152;2022-11-06T18:33:46;17.30;;;5.97;;
34657;SDS011;20865;43.312;27.152;2022-11-06T18:36:17;15.58;;;5.95;;
34657;SDS011;20865;43.312;27.152;2022-11-06T18:38:44;16.75;;;6.67;;
34657;SDS011;20865;43.312;27.152;2022-11-06T18:41:20;24.70;;;8.73;;
34657;SDS011;20865;43.312;27.152;2022-11-06T18:43:45;23.70;;;8.65;;
34657;SDS011;20865;43.312;27.152;2022-11-06T18:46:14;24.18;;;7.33;;
34657;SDS011;20865;43.312;27.152;2022-11-06T18:48:43;21.57;;;7.85;;
34657;SDS011;20865;43.312;27.152;2022-11-06T18:51:12;13.13;;;4.92;;
34657;SDS011;20865;43.312;27.152;2022-11-06T18:53:42;23.27;;;7.33;;
34657;SDS011;20865;43.312;27.152;2022-11-06T18:56:10;25.97;;;8.15;;
34657;SDS011;20865;43.312;27.152;2022-11-06T18:58:40;25.20;;;8.18;;
34657;SDS011;20865;43.312;27.152;2022-11-06T19:01:13;24.43;;;7.22;;
34657;SDS011;20865;43.312;27.152;2022-11-06T19:03:39;28.35;;;8.85;;
34657;SDS011;20865;43.312;27.152;2022-11-06T19:06:09;17.87;;;7.03;;
34657;SDS011;20865;43.312;27.152;2022-11-06T19:08:38;22.05;;;5.37;;
34657;SDS011;20865;43.312;27.152;2022-11-06T19:11:07;14.60;;;5.20;;
34657;SDS011;20865;43.312;27.152;2022-11-06T19:13:35;11.57;;;4.97;;
34657;SDS011;20865;43.312;27.152;2022-11-06T19:16:04;17.12;;;5.47;;
34657;SDS011;20865;43.312;27.152;2022-11-06T19:18:33;9.75;;;4.90;;
34657;SDS011;20865;43.312;27.152;2022-11-06T19:21:02;16.30;;;4.70;;
34657;SDS011;20865;43.312;27.152;2022-11-06T19:23:31;12.00;;;5.08;;
34657;SDS011;20865;43.312;27.152;2022-11-06T19:25:58;16.70;;;5.65;;
34657;SDS011;20865;43.312;27.152;2022-11-06T19:28:26;16.25;;;4.90;;
34657;SDS011;20865;43.312;27.152;2022-11-06T19:30:53;9.78;;;4.60;;
34657;SDS011;20865;43.312;27.152;2022-11-06T19:33:23;16.23;;;4.28;;
34657;SDS011;20865;43.312;27.152;2022-11-06T19:35:51;14.75;;;4.47;;
34657;SDS011;20865;43.312;27.152;2022-11-06T19:38:19;15.38;;;4.42;;
34657;SDS011;20865;43.312;27.152;2022-11-06T19:40:57;10.30;;;5.10;;
34657;SDS011;20865;43.312;27.152;2022-11-06T19:43:27;16.50;;;5.33;;
34657;SDS011;20865;43.312;27.152;2022-11-06T19:46:02;23.70;;;5.87;;
34657;SDS011;20865;43.312;27.152;2022-11-06T19:48:26;13.62;;;5.05;;
34657;SDS011;20865;43.312;27.152;2022-11-06T19:50:53;16.85;;;4.50;;
34657;SDS011;20865;43.312;27.152;2022-11-06T19:53:21;7.83;;;4.15;;
34657;SDS011;20865;43.312;27.152;2022-11-06T19:55:50;14.33;;;4.92;;
34657;SDS011;20865;43.312;27.152;2022-11-06T19:58:18;12.40;;;4.92;;
34657;SDS011;20865;43.312;27.152;2022-11-06T20:00:46;12.80;;;4.22;;
34657;SDS011;20865;43.312;27.152;2022-11-06T20:03:14;18.65;;;4.25;;
34657;SDS011;20865;43.312;27.152;2022-11-06T20:05:45;9.03;;;3.80;;
34657;SDS011;20865;43.312;27.152;2022-11-06T20:08:12;19.00;;;5.12;;
34657;SDS011;20865;43.312;27.152;2022-11-06T20:10:40;14.03;;;4.60;;
34657;SDS011;20865;43.312;27.152;2022-11-06T20:13:08;16.35;;;4.67;;
34657;SDS011;20865;43.312;27.152;2022-11-06T20:15:35;23.85;;;5.25;;
34657;SDS011;20865;43.312;27.152;2022-11-06T20:18:03;20.90;;;5.72;;
34657;SDS011;20865;43.312;27.152;2022-11-06T20:20:31;11.85;;;5.58;;
34657;SDS011;20865;43.312;27.152;2022-11-06T20:22:59;14.85;;;5.00;;
34657;SDS011;20865;43.312;27.152;2022-11-06T20:25:26;12.88;;;4.78;;
34657;SDS011;20865;43.312;27.152;2022-11-06T20:27:54;13.88;;;4.58;;
34657;SDS011;20865;43.312;27.152;2022-11-06T20:30:22;16.17;;;4.95;;
34657;SDS011;20865;43.312;27.152;2022-11-06T20:32:49;12.70;;;4.47;;
34657;SDS011;20865;43.312;27.152;2022-11-06T20:35:17;17.05;;;4.45;;
34657;SDS011;20865;43.312;27.152;2022-11-06T20:37:44;20.43;;;6.15;;
34657;SDS011;20865;43.312;27.152;2022-11-06T20:40:12;10.43;;;4.47;;
34657;SDS011;20865;43.312;27.152;2022-11-06T20:42:40;11.93;;;4.80;;
34657;SDS011;20865;43.312;27.152;2022-11-06T20:45:08;10.93;;;4.55;;
34657;SDS011;20865;43.312;27.152;2022-11-06T20:47:35;8.03;;;4.55;;
34657;SDS011;20865;43.312;27.152;2022-11-06T20:50:03;12.85;;;4.47;;
34657;SDS011;20865;43.312;27.152;2022-11-06T20:52:31;13.53;;;5.05;;
34657;SDS011;20865;43.312;27.152;2022-11-06T20:54:59;12.88;;;5.03;;
34657;SDS011;20865;43.312;27.152;2022-11-06T20:57:26;12.63;;;4.72;;
34657;SDS011;20865;43.312;27.152;2022-11-06T20:59:54;9.43;;;4.37;;
34657;SDS011;20865;43.312;27.152;2022-11-06T21:02:22;11.95;;;4.58;;
34657;SDS011;20865;43.312;27.152;2022-11-06T21:04:49;9.78;;;4.40;;
34657;SDS011;20865;43.312;27.152;2022-11-06T21:07:17;9.85;;;4.05;;
34657;SDS011;20865;43.312;27.152;2022-11-06T21:09:44;15.30;;;4.72;;
34657;SDS011;20865;43.312;27.152;2022-11-06T21:12:12;9.83;;;4.10;;
34657;SDS011;20865;43.312;27.152;2022-11-06T21:14:40;10.70;;;4.72;;
34657;SDS011;20865;43.312;27.152;2022-11-06T21:17:07;13.70;;;5.50;;
34657;SDS011;20865;43.312;27.152;2022-11-06T21:19:35;13.50;;;4.03;;
34657;SDS011;20865;43.312;27.152;2022-11-06T21:22:02;16.25;;;4.28;;
34657;SDS011;20865;43.312;27.152;2022-11-06T21:24:30;12.68;;;3.87;;
34657;SDS011;20865;43.312;27.152;2022-11-06T21:26:58;13.62;;;3.72;;
34657;SDS011;20865;43.312;27.152;2022-11-06T21:29:25;13.10;;;3.58;;
34657;SDS011;20865;43.312;27.152;2022-11-06T21:31:53;12.55;;;3.90;;
34657;SDS011;20865;43.312;27.152;2022-11-06T21:34:21;11.12;;;4.65;;
34657;SDS011;20865;43.312;27.152;2022-11-06T21:36:48;7.12;;;3.58;;
34657;SDS011;20865;43.312;27.152;2022-11-06T21:39:17;14.95;;;3.55;;
34657;SDS011;20865;43.312;27.152;2022-11-06T21:41:45;9.80;;;3.75;;
34657;SDS011;20865;43.312;27.152;2022-11-06T21:44:14;9.83;;;3.30;;
34657;SDS011;20865;43.312;27.152;2022-11-06T21:46:43;8.45;;;3.75;;
34657;SDS011;20865;43.312;27.152;2022-11-06T21:49:11;5.85;;;3.15;;
34657;SDS011;20865;43.312;27.152;2022-11-06T21:51:39;10.85;;;3.62;;
34657;SDS011;20865;43.312;27.152;2022-11-06T21:54:08;6.83;;;3.33;;
34657;SDS011;20865;43.312;27.152;2022-11-06T21:56:56;7.12;;;3.35;;
34657;SDS011;20865;43.312;27.152;2022-11-06T21:59:25;16.12;;;3.70;;
34657;SDS011;20865;43.312;27.152;2022-11-06T22:01:53;11.88;;;3.27;;
34657;SDS011;20865;43.312;27.152;2022-11-06T22:04:21;9.73;;;3.52;;
34657;SDS011;20865;43.312;27.152;2022-11-06T22:06:49;6.17;;;3.00;;
34657;SDS011;20865;43.312;27.152;2022-11-06T22:09:17;10.55;;;3.27;;
34657;SDS011;20865;43.312;27.152;2022-11-06T22:11:45;11.08;;;3.60;;
34657;SDS011;20865;43.312;27.152;2022-11-06T22:14:14;9.88;;;4.45;;
34657;SDS011;20865;43.312;27.152;2022-11-06T22:16:43;20.43;;;3.95;;
34657;SDS011;20865;43.312;27.152;2022-11-06T22:19:12;8.20;;;3.20;;
34657;SDS011;20865;43.312;27.152;2022-11-06T22:21:42;10.32;;;3.58;;